createdAt,value
2022-12-31T00:00:01.117Z,9.8
2022-12-31T00:02:01.148Z,10
2022-12-31T00:03:01.262Z,9.9
2022-12-31T00:05:01.047Z,10
2022-12-31T00:06:01.036Z,9.8
2022-12-31T00:09:01.087Z,10
2022-12-31T00:11:00.982Z,10
2022-12-31T00:12:00.974Z,9.9
2022-12-31T00:13:01.016Z,10
2022-12-31T00:14:01.160Z,9.9
2022-12-31T00:15:01.214Z,9.8
2022-12-31T00:17:01.100Z,10
2022-12-31T00:21:00.949Z,9.9
2022-12-31T00:24:00.935Z,10
2022-12-31T00:26:00.977Z,9.9
2022-12-31T00:28:01.151Z,10
2022-12-31T00:31:01.078Z,10
2022-12-31T00:33:01.024Z,9.9
2022-12-31T00:34:01.082Z,10
2022-12-31T00:37:01.106Z,10.1
2022-12-31T00:41:01.035Z,9.9
2022-12-31T00:43:00.991Z,10.3
2022-12-31T00:44:00.999Z,10.1
2022-12-31T00:45:01.145Z,9.9
2022-12-31T00:46:01.235Z,10.1
2022-12-31T00:48:01.083Z,10.1
2022-12-31T00:50:01.061Z,10.2
2022-12-31T00:52:00.983Z,10.1
2022-12-31T00:54:00.988Z,10
2022-12-31T00:55:01.043Z,10.2
2022-12-31T00:57:01.056Z,10.2
2022-12-31T00:59:01.034Z,10.2
2022-12-31T01:03:01.265Z,10.3
2022-12-31T01:07:01.282Z,10.2
2022-12-31T01:09:01.180Z,10.4
2022-12-31T01:11:01.136Z,10.3
2022-12-31T01:13:01.131Z,10.4
2022-12-31T01:16:01.083Z,10.3
2022-12-31T01:17:01.151Z,10.4
2022-12-31T01:19:01.049Z,10.4
2022-12-31T01:21:01.017Z,10.5
2022-12-31T01:23:00.980Z,10.5
2022-12-31T01:26:00.965Z,10.4
2022-12-31T01:28:00.929Z,10.7
2022-12-31T01:29:01.161Z,10.6
2022-12-31T01:31:01.017Z,10.6
2022-12-31T01:33:00.946Z,10.6
2022-12-31T01:36:00.931Z,10.6
2022-12-31T01:38:00.940Z,10.7
2022-12-31T01:39:00.940Z,10.8
2022-12-31T01:45:01.056Z,10.8
2022-12-31T01:47:00.961Z,10.9
2022-12-31T01:49:00.955Z,10.9
2022-12-31T01:50:00.957Z,10.8
2022-12-31T01:52:00.950Z,10.9
2022-12-31T01:53:00.967Z,10.8
2022-12-31T01:56:00.929Z,10.9
2022-12-31T01:57:00.997Z,11
2022-12-31T01:59:00.938Z,10.8
2022-12-31T02:01:00.994Z,10.9
2022-12-31T02:02:00.996Z,10.8
2022-12-31T02:04:00.967Z,11
2022-12-31T02:05:01.015Z,10.8
2022-12-31T02:07:01.091Z,10.9
2022-12-31T02:10:01.037Z,10.8
2022-12-31T02:13:00.938Z,10.9
2022-12-31T02:14:00.996Z,10.8
2022-12-31T02:17:00.991Z,11
2022-12-31T02:19:01.013Z,11
2022-12-31T02:21:00.946Z,10.9
2022-12-31T02:23:01.007Z,11
2022-12-31T02:25:00.972Z,11
2022-12-31T02:27:01.109Z,10.9
2022-12-31T02:29:00.960Z,11
2022-12-31T02:35:00.996Z,11.2
2022-12-31T02:40:00.972Z,11
2022-12-31T02:41:00.968Z,11.1
2022-12-31T02:46:00.992Z,11.3
2022-12-31T02:47:01.003Z,11.2
2022-12-31T02:48:00.991Z,11.3
2022-12-31T02:50:00.998Z,11.1
2022-12-31T02:52:00.936Z,11.4
2022-12-31T02:53:00.938Z,11.3
2022-12-31T02:55:01.024Z,11.2
2022-12-31T02:59:01.015Z,11.4
2022-12-31T03:01:00.978Z,11.5
2022-12-31T03:02:01.096Z,11.3
2022-12-31T03:04:00.923Z,11.5
2022-12-31T03:05:01.014Z,11.4
2022-12-31T03:09:01.025Z,11.3
2022-12-31T03:11:00.926Z,11.3
2022-12-31T03:12:00.922Z,11.7
2022-12-31T03:13:00.949Z,11.6
2022-12-31T03:14:00.935Z,11.5
2022-12-31T03:18:00.953Z,11.6
2022-12-31T03:20:00.935Z,11.7
2022-12-31T03:22:00.922Z,11.8
2022-12-31T03:23:01.095Z,11.6
2022-12-31T03:25:00.984Z,11.8
2022-12-31T03:28:00.935Z,11.7
2022-12-31T03:29:00.978Z,11.8
2022-12-31T03:30:01.163Z,11.9
2022-12-31T03:33:00.981Z,11.9
2022-12-31T03:36:00.933Z,12
2022-12-31T03:37:00.954Z,11.8
2022-12-31T03:38:00.967Z,11.9
2022-12-31T03:39:00.962Z,12
2022-12-31T03:41:00.966Z,11.9
2022-12-31T03:43:00.978Z,11.9
2022-12-31T03:46:00.937Z,12.1
2022-12-31T03:47:01.016Z,12
2022-12-31T03:50:00.928Z,11.9
2022-12-31T03:52:00.944Z,12
2022-12-31T03:55:01.025Z,12.1
2022-12-31T03:58:01.021Z,12
2022-12-31T04:01:01.063Z,12
2022-12-31T04:03:01.002Z,12.1
2022-12-31T04:04:00.930Z,12.2
2022-12-31T04:05:00.956Z,12
2022-12-31T04:07:01.052Z,12.1
2022-12-31T04:08:01.042Z,12
2022-12-31T04:11:00.964Z,12.2
2022-12-31T04:14:00.970Z,12.2
2022-12-31T04:15:00.994Z,12.1
2022-12-31T04:17:00.994Z,12.1
2022-12-31T04:19:01.045Z,12.1
2022-12-31T04:22:00.925Z,12.1
2022-12-31T04:25:00.990Z,12
2022-12-31T04:28:01.025Z,11.9
2022-12-31T04:29:00.974Z,12
2022-12-31T04:32:01.042Z,11.8
2022-12-31T04:37:01.044Z,11.9
2022-12-31T04:39:01.018Z,11.9
2022-12-31T04:41:00.952Z,11.9
2022-12-31T04:43:00.962Z,12.1
2022-12-31T04:45:01.064Z,12
2022-12-31T04:47:00.956Z,11.9
2022-12-31T04:48:00.952Z,12
2022-12-31T04:50:00.944Z,11.9
2022-12-31T04:51:00.962Z,12.1
2022-12-31T04:52:00.995Z,12
2022-12-31T04:55:00.941Z,12.1
2022-12-31T04:56:00.912Z,11.9
2022-12-31T04:57:00.934Z,12
2022-12-31T05:01:01.036Z,12
2022-12-31T05:03:00.986Z,12.1
2022-12-31T05:04:00.934Z,12
2022-12-31T05:07:01.004Z,12.2
2022-12-31T05:10:00.959Z,12.2
2022-12-31T05:11:00.985Z,12.3
2022-12-31T05:14:00.938Z,12.4
2022-12-31T05:16:00.953Z,12.2
2022-12-31T05:17:01.017Z,12.3
2022-12-31T05:19:00.951Z,12.4
2022-12-31T05:20:00.960Z,12.3
2022-12-31T05:22:00.931Z,12.2
2022-12-31T05:23:00.935Z,12.3
2022-12-31T05:25:00.995Z,12.3
2022-12-31T05:27:00.987Z,12.4
2022-12-31T05:29:01.013Z,12.3
2022-12-31T05:31:00.980Z,12.2
2022-12-31T05:33:00.989Z,12.1
2022-12-31T05:34:00.983Z,12.3
2022-12-31T05:35:00.978Z,12.2
2022-12-31T05:36:00.987Z,12.3
2022-12-31T05:38:00.936Z,12
2022-12-31T05:39:00.930Z,12.1
2022-12-31T05:40:00.999Z,12
2022-12-31T05:41:00.958Z,12.1
2022-12-31T05:42:00.993Z,12.2
2022-12-31T05:43:01.004Z,12.3
2022-12-31T05:44:01.086Z,12.2
2022-12-31T05:48:00.929Z,12.1
2022-12-31T05:49:00.954Z,12.2
2022-12-31T05:53:00.975Z,12.1
2022-12-31T05:55:00.956Z,12.2
2022-12-31T05:56:00.933Z,12
2022-12-31T05:57:00.987Z,12.2
2022-12-31T05:58:00.936Z,12.1
2022-12-31T06:00:01.065Z,12.2
2022-12-31T06:03:01.029Z,12.2
2022-12-31T06:04:00.989Z,11.9
2022-12-31T06:06:00.928Z,12
2022-12-31T06:07:00.942Z,12.2
2022-12-31T06:08:00.971Z,12.1
2022-12-31T06:10:00.952Z,12.1
2022-12-31T06:11:00.945Z,12
2022-12-31T06:20:01.299Z,12.2
2022-12-31T06:21:00.990Z,12.1
2022-12-31T06:23:00.943Z,12.2
2022-12-31T06:24:00.960Z,12.3
2022-12-31T06:26:00.912Z,12.2
2022-12-31T06:27:01.013Z,12.3
2022-12-31T06:29:00.973Z,12.3
2022-12-31T06:31:01.041Z,12.5
2022-12-31T06:33:00.955Z,12.2
2022-12-31T06:34:01.033Z,12.3
2022-12-31T06:36:00.947Z,12.3
2022-12-31T06:37:00.944Z,12.4
2022-12-31T06:39:00.934Z,12.3
2022-12-31T06:40:00.918Z,12.5
2022-12-31T06:42:00.979Z,12.4
2022-12-31T06:44:00.978Z,12.5
2022-12-31T06:47:00.955Z,12.6
2022-12-31T06:49:00.945Z,12.6
2022-12-31T06:50:00.960Z,12.7
2022-12-31T06:52:00.960Z,12.6
2022-12-31T06:54:00.983Z,12.7
2022-12-31T06:57:00.990Z,12.7
2022-12-31T07:03:00.964Z,12.4
2022-12-31T07:05:00.986Z,12.5
2022-12-31T07:08:00.985Z,12.5
2022-12-31T07:10:00.929Z,12.5
2022-12-31T07:11:00.975Z,12.6
2022-12-31T07:12:01.012Z,12.5
2022-12-31T07:14:00.940Z,12.6
2022-12-31T07:16:00.945Z,12.5
2022-12-31T07:19:00.947Z,12.6
2022-12-31T07:21:00.951Z,12.8
2022-12-31T07:24:00.939Z,12.7
2022-12-31T07:25:00.973Z,12.8
2022-12-31T07:27:00.953Z,12.7
2022-12-31T07:29:00.925Z,12.7
2022-12-31T07:30:01.125Z,12.8
2022-12-31T07:32:00.935Z,12.7
2022-12-31T07:33:00.995Z,12.9
2022-12-31T07:34:00.974Z,12.8
2022-12-31T07:35:01.005Z,12.9
2022-12-31T07:37:01.024Z,12.8
2022-12-31T07:40:00.945Z,12.8
2022-12-31T07:41:05.605Z,13
2022-12-31T07:45:01.011Z,13.1
2022-12-31T07:49:00.949Z,13
2022-12-31T07:51:01.003Z,13.2
2022-12-31T07:54:00.924Z,13
2022-12-31T07:55:00.952Z,13.2
2022-12-31T07:56:01.005Z,13.1
2022-12-31T07:58:00.940Z,13
2022-12-31T07:59:00.988Z,13.3
2022-12-31T08:00:01.004Z,13.1
2022-12-31T08:02:00.990Z,13.1
2022-12-31T08:03:01.011Z,13.2
2022-12-31T08:04:00.939Z,13.1
2022-12-31T08:05:00.942Z,13.2
2022-12-31T08:06:00.962Z,13.1
2022-12-31T08:07:00.999Z,13.2
2022-12-31T08:09:00.944Z,13.2
2022-12-31T08:12:00.947Z,13.4
2022-12-31T08:13:00.968Z,13.3
2022-12-31T08:15:00.983Z,13.4
2022-12-31T08:19:00.942Z,13.4
2022-12-31T08:26:00.958Z,13.3
2022-12-31T08:27:00.971Z,13.4
2022-12-31T08:31:00.944Z,13.3
2022-12-31T08:32:00.991Z,13.4
2022-12-31T08:34:05.698Z,13.6
2022-12-31T08:35:00.989Z,13.4
2022-12-31T08:37:00.967Z,13.5
2022-12-31T08:38:00.986Z,13.4
2022-12-31T08:42:00.918Z,13.4
2022-12-31T08:44:00.932Z,13.5
2022-12-31T08:45:00.994Z,13.6
2022-12-31T08:48:00.961Z,13.5
2022-12-31T08:51:00.927Z,13.6
2022-12-31T08:53:00.966Z,13.5
2022-12-31T08:56:00.943Z,13.7
2022-12-31T08:57:00.932Z,13.6
2022-12-31T08:59:00.964Z,13.9
2022-12-31T09:03:00.974Z,13.8
2022-12-31T09:05:00.957Z,13.8
2022-12-31T09:06:00.954Z,13.7
2022-12-31T09:08:00.941Z,13.7
2022-12-31T09:09:00.918Z,13.9
2022-12-31T09:11:00.927Z,13.9
2022-12-31T09:13:00.924Z,14
2022-12-31T09:17:01.019Z,14
2022-12-31T09:19:00.920Z,13.9
2022-12-31T09:21:00.936Z,14
2022-12-31T09:24:06.010Z,14.1
2022-12-31T09:25:00.962Z,14
2022-12-31T09:28:00.930Z,14.1
2022-12-31T09:29:00.923Z,14.2
2022-12-31T09:30:01.163Z,14.1
2022-12-31T09:36:00.896Z,14.2
2022-12-31T09:37:00.956Z,14.3
2022-12-31T09:43:00.927Z,14.3
2022-12-31T09:45:00.968Z,14.2
2022-12-31T09:47:00.941Z,14.2
2022-12-31T09:49:00.927Z,14.3
2022-12-31T09:50:00.975Z,14.5
2022-12-31T09:53:00.979Z,14.2
2022-12-31T09:55:00.970Z,14.4
2022-12-31T09:56:01.915Z,14.3
2022-12-31T09:58:01.658Z,14.4
2022-12-31T10:01:01.689Z,14.5
2022-12-31T10:03:01.036Z,14.5
2022-12-31T10:04:00.948Z,14.4
2022-12-31T10:06:00.972Z,14.5
2022-12-31T10:07:00.975Z,14.6
2022-12-31T10:09:00.945Z,14.6
2022-12-31T10:11:00.961Z,14.5
2022-12-31T10:13:00.943Z,14.5
2022-12-31T10:15:01.060Z,14.6
2022-12-31T10:20:00.945Z,14.7
2022-12-31T10:21:00.929Z,14.6
2022-12-31T10:22:00.948Z,14.7
2022-12-31T10:27:00.970Z,14.6
2022-12-31T10:30:01.087Z,14.8
2022-12-31T10:33:00.990Z,14.9
2022-12-31T10:35:00.960Z,14.8
2022-12-31T10:37:00.946Z,14.7
2022-12-31T10:38:00.953Z,14.9
2022-12-31T10:41:00.959Z,14.8
2022-12-31T10:43:00.931Z,14.9
2022-12-31T10:46:01.395Z,14.7
2022-12-31T10:47:00.971Z,14.9
2022-12-31T10:49:01.003Z,14.9
2022-12-31T10:52:00.989Z,15
2022-12-31T10:54:00.986Z,14.9
2022-12-31T10:56:00.985Z,14.9
2022-12-31T10:58:04.169Z,14.9
2022-12-31T10:59:00.989Z,15
2022-12-31T11:01:01.161Z,14.8
2022-12-31T11:03:01.050Z,15.1
2022-12-31T11:05:00.975Z,14.8
2022-12-31T11:13:00.946Z,14.9
2022-12-31T11:14:00.937Z,15
2022-12-31T11:15:01.043Z,15.1
2022-12-31T11:17:04.460Z,15.2
2022-12-31T11:19:01.900Z,15
2022-12-31T11:20:02.027Z,15.1
2022-12-31T11:21:01.251Z,15.2
2022-12-31T11:23:00.967Z,15.2
2022-12-31T11:25:00.951Z,15
2022-12-31T11:26:00.969Z,15.3
2022-12-31T11:31:00.984Z,15.2
2022-12-31T11:32:01.055Z,15.3
2022-12-31T11:35:01.063Z,15.4
2022-12-31T11:39:01.060Z,15.3
2022-12-31T11:41:01.062Z,15.3
2022-12-31T11:42:01.091Z,15.4
2022-12-31T11:50:00.921Z,15.3
2022-12-31T11:51:01.160Z,15.4
2022-12-31T11:53:00.950Z,15.3
2022-12-31T11:56:00.954Z,15.4
2022-12-31T11:57:00.936Z,15.2
2022-12-31T11:58:01.029Z,15.4
2022-12-31T12:02:00.946Z,15.5
2022-12-31T12:03:01.008Z,15.6
2022-12-31T12:06:00.965Z,15.5
2022-12-31T12:08:00.970Z,15.4
2022-12-31T12:09:01.047Z,15.6
2022-12-31T12:11:00.984Z,15.5
2022-12-31T12:13:00.933Z,15.7
2022-12-31T12:19:00.960Z,15.5
2022-12-31T12:25:00.949Z,15.8
2022-12-31T12:27:00.990Z,15.7
2022-12-31T12:29:00.916Z,15.7
2022-12-31T12:33:00.919Z,15.8
2022-12-31T12:34:00.907Z,15.9
2022-12-31T12:35:00.953Z,15.7
2022-12-31T12:37:00.951Z,15.8
2022-12-31T12:40:01.026Z,15.9
2022-12-31T12:42:00.941Z,16
2022-12-31T12:43:01.003Z,15.9
2022-12-31T12:48:00.934Z,16
2022-12-31T12:49:01.055Z,15.9
2022-12-31T12:51:00.956Z,15.9
2022-12-31T12:55:00.926Z,15.8
2022-12-31T12:59:00.908Z,15.8
2022-12-31T13:02:00.966Z,15.7
2022-12-31T13:06:00.892Z,15.6
2022-12-31T13:12:05.540Z,15.4
2022-12-31T13:13:25.322Z,15.5
2022-12-31T13:15:00.990Z,15.6
2022-12-31T13:16:01.229Z,15.5
2022-12-31T13:18:02.003Z,15.4
2022-12-31T13:20:00.964Z,15.4
2022-12-31T13:21:00.953Z,15.5
2022-12-31T13:23:00.944Z,15.3
2022-12-31T13:26:01.009Z,15.4
2022-12-31T13:30:00.998Z,15.3
2022-12-31T13:32:01.054Z,15.4
2022-12-31T13:34:00.956Z,15.3
2022-12-31T13:35:01.017Z,15.2
2022-12-31T13:37:01.058Z,15.2
2022-12-31T13:39:00.983Z,15.3
2022-12-31T13:40:01.022Z,15.2
2022-12-31T13:42:00.994Z,15.2
2022-12-31T13:43:00.979Z,15.1
2022-12-31T13:45:01.045Z,15.1
2022-12-31T13:47:01.016Z,15.1
2022-12-31T13:50:00.982Z,15.2
2022-12-31T13:52:00.989Z,15.2
2022-12-31T13:54:01.031Z,15
2022-12-31T13:56:01.027Z,15
2022-12-31T13:58:00.960Z,14.9
2022-12-31T13:59:00.946Z,15.2
2022-12-31T14:00:01.019Z,15
2022-12-31T14:01:01.126Z,15.1
2022-12-31T14:03:01.125Z,15.1
2022-12-31T14:05:00.999Z,14.9
2022-12-31T14:06:01.012Z,15
2022-12-31T14:08:01.024Z,15.1
2022-12-31T14:10:00.963Z,15.1
2022-12-31T14:11:00.955Z,15
2022-12-31T14:12:00.995Z,15.1
2022-12-31T14:14:01.028Z,14.9
2022-12-31T14:21:01.001Z,15
2022-12-31T14:27:00.992Z,14.8
2022-12-31T14:29:00.990Z,14.9
2022-12-31T14:32:01.015Z,14.8
2022-12-31T14:34:01.007Z,15
2022-12-31T14:35:00.975Z,14.7
2022-12-31T14:39:00.988Z,14.7
2022-12-31T14:40:01.200Z,14.9
2022-12-31T14:43:00.979Z,14.9
2022-12-31T14:49:01.036Z,14.8
2022-12-31T14:51:00.965Z,14.7
2022-12-31T14:54:00.974Z,14.6
2022-12-31T14:56:00.968Z,14.7
2022-12-31T14:57:01.011Z,14.6
2022-12-31T14:59:01.043Z,14.6
2022-12-31T15:02:01.204Z,14.5
2022-12-31T15:05:00.947Z,14.6
2022-12-31T15:06:00.952Z,14.5
2022-12-31T15:07:01.028Z,14.6
2022-12-31T15:13:01.013Z,14.4
2022-12-31T15:15:00.986Z,14.3
2022-12-31T15:16:01.014Z,14.4
2022-12-31T15:21:00.994Z,14.5
2022-12-31T15:24:00.960Z,14.4
2022-12-31T15:30:01.096Z,14.3
2022-12-31T15:32:00.968Z,14.3
2022-12-31T15:34:00.989Z,14.4
2022-12-31T15:37:00.979Z,14.3
2022-12-31T15:38:00.980Z,14.2
2022-12-31T15:39:00.962Z,14.4
2022-12-31T15:42:36.564Z,14.3
2022-12-31T15:45:01.161Z,14.4
2022-12-31T15:47:01.020Z,14.5
2022-12-31T15:50:00.944Z,14.4
2022-12-31T15:53:01.016Z,14.3
2022-12-31T15:56:01.076Z,14.4
2022-12-31T15:57:04.289Z,14.3
2022-12-31T16:02:01.094Z,14.2
2022-12-31T16:03:01.041Z,14.3
2022-12-31T16:05:00.978Z,14.4
2022-12-31T16:07:00.952Z,14.4
2022-12-31T16:10:00.951Z,14.4
2022-12-31T16:12:01.035Z,14.3
2022-12-31T16:14:00.960Z,14.4
2022-12-31T16:18:00.959Z,14.2
2022-12-31T16:20:00.925Z,14.3
2022-12-31T16:21:00.966Z,14.2
2022-12-31T16:23:00.975Z,14.4
2022-12-31T16:27:00.963Z,14.3
2022-12-31T16:31:01.044Z,14.4
2022-12-31T16:36:00.985Z,14.4
2022-12-31T16:37:00.936Z,14.3
2022-12-31T16:38:00.953Z,14.4
2022-12-31T16:43:00.933Z,14.5
2022-12-31T16:48:00.925Z,14.6
2022-12-31T16:50:00.984Z,14.5
2022-12-31T16:52:01.003Z,14.6
2022-12-31T16:54:00.904Z,14.6
2022-12-31T17:00:01.145Z,14.7
2022-12-31T17:02:01.029Z,14.6
2022-12-31T17:09:00.914Z,14.7
2022-12-31T17:10:00.941Z,14.8
2022-12-31T17:11:00.954Z,14.6
2022-12-31T17:13:26.123Z,14.6
2022-12-31T17:15:01.004Z,14.6
2022-12-31T17:18:00.919Z,14.7
2022-12-31T17:22:00.919Z,14.9
2022-12-31T17:23:00.915Z,14.8
2022-12-31T17:24:00.938Z,14.9
2022-12-31T17:25:00.988Z,14.8
2022-12-31T17:28:00.956Z,15
2022-12-31T17:30:01.030Z,15
2022-12-31T17:35:00.921Z,14.9
2022-12-31T17:36:00.911Z,15
2022-12-31T17:37:00.974Z,15.2
2022-12-31T17:40:17.298Z,15.2
2022-12-31T17:43:00.935Z,15.2
2022-12-31T17:45:01.068Z,15
2022-12-31T17:47:01.009Z,15
2022-12-31T17:50:00.939Z,14.9
2022-12-31T17:52:00.969Z,14.7
2022-12-31T17:53:01.017Z,14.8
2022-12-31T17:57:01.055Z,14.7
2022-12-31T17:59:00.989Z,14.7
2022-12-31T18:01:01.053Z,14.6
2022-12-31T18:02:01.145Z,14.7
2022-12-31T18:05:00.960Z,14.5
2022-12-31T18:09:00.921Z,14.6
2022-12-31T18:12:01.734Z,14.5
2022-12-31T18:13:00.943Z,14.4
2022-12-31T18:15:00.998Z,14.4
2022-12-31T18:17:00.962Z,14.3
2022-12-31T18:20:05.524Z,14.4
2022-12-31T18:22:00.926Z,14.2
2022-12-31T18:23:00.948Z,14.4
2022-12-31T18:28:00.967Z,14.4
2022-12-31T18:30:04.922Z,14.3
2022-12-31T18:32:01.047Z,14.2
2022-12-31T18:34:00.950Z,14.4
2022-12-31T18:35:00.946Z,14.3
2022-12-31T18:38:00.933Z,14.4
2022-12-31T18:39:00.911Z,14.5
2022-12-31T18:40:00.921Z,14.4
2022-12-31T18:42:00.990Z,14.6
2022-12-31T18:44:00.922Z,14.6
2022-12-31T18:48:00.945Z,14.7
2022-12-31T18:49:00.931Z,14.6
2022-12-31T18:50:00.969Z,14.7
2022-12-31T18:53:00.963Z,14.6
2022-12-31T18:54:00.925Z,14.7
2022-12-31T19:02:01.151Z,14.6
2022-12-31T19:03:01.016Z,14.7
2022-12-31T19:04:00.959Z,14.6
2022-12-31T19:06:00.945Z,14.7
2022-12-31T19:08:00.914Z,14.5
2022-12-31T19:09:01.328Z,14.6
2022-12-31T19:11:00.943Z,14.5
2022-12-31T19:12:00.953Z,14.4
2022-12-31T19:14:00.934Z,14.5
2022-12-31T19:15:00.944Z,14.6
2022-12-31T19:16:01.035Z,14.5
2022-12-31T19:19:05.262Z,14.4
2022-12-31T19:22:00.970Z,14.7
2022-12-31T19:24:00.929Z,14.4
2022-12-31T19:25:01.004Z,14.5
2022-12-31T19:28:00.966Z,14.5
2022-12-31T19:31:00.921Z,14.5
2022-12-31T19:32:01.048Z,14.6
2022-12-31T19:34:00.964Z,14.6
2022-12-31T19:38:00.933Z,14.7
2022-12-31T19:42:00.906Z,14.6
2022-12-31T19:43:00.912Z,14.7
2022-12-31T19:45:01.008Z,14.9
2022-12-31T19:47:01.007Z,14.7
2022-12-31T19:50:00.955Z,14.8
2022-12-31T19:57:00.971Z,14.8
2022-12-31T19:59:00.946Z,14.6
2022-12-31T20:00:01.143Z,14.7
2022-12-31T20:02:01.074Z,14.7
2022-12-31T20:03:01.094Z,14.8
2022-12-31T20:05:00.942Z,14.8
2022-12-31T20:06:00.988Z,14.6
2022-12-31T20:12:00.943Z,14.7
2022-12-31T20:13:00.940Z,14.9
2022-12-31T20:14:00.973Z,14.7
2022-12-31T20:15:01.042Z,14.8
2022-12-31T20:17:00.944Z,14.8
2022-12-31T20:18:00.927Z,14.7
2022-12-31T20:22:00.912Z,14.8
2022-12-31T20:24:00.923Z,14.7
2022-12-31T20:25:00.952Z,14.8
2022-12-31T20:27:00.951Z,14.8
2022-12-31T20:29:00.938Z,14.8
2022-12-31T20:30:01.105Z,14.7
2022-12-31T20:32:00.964Z,14.9
2022-12-31T20:33:00.985Z,14.7
2022-12-31T20:37:00.944Z,14.7
2022-12-31T20:40:00.965Z,14.9
2022-12-31T20:44:00.990Z,14.9
2022-12-31T20:45:01.001Z,14.8
2022-12-31T20:46:01.007Z,14.9
2022-12-31T20:48:00.930Z,14.8
2022-12-31T20:49:00.945Z,15
2022-12-31T20:52:00.923Z,14.8
2022-12-31T20:54:00.910Z,15
2022-12-31T20:56:00.956Z,14.8
2022-12-31T20:58:00.926Z,15
2022-12-31T21:00:00.970Z,14.9
2022-12-31T21:03:10.754Z,15
2022-12-31T21:06:01.191Z,14.9
2022-12-31T21:09:00.977Z,14.9
2022-12-31T21:10:00.941Z,15
2022-12-31T21:13:00.921Z,14.8
2022-12-31T21:16:00.963Z,15
2022-12-31T21:17:00.976Z,14.9
2022-12-31T21:19:00.920Z,14.8
2022-12-31T21:21:00.980Z,14.9
2022-12-31T21:23:00.918Z,14.8
2022-12-31T21:25:00.915Z,14.8
2022-12-31T21:26:00.971Z,14.9
2022-12-31T21:28:00.917Z,14.8
2022-12-31T21:29:00.923Z,14.9
2022-12-31T21:31:00.939Z,14.8
2022-12-31T21:33:00.950Z,14.7
2022-12-31T21:37:00.977Z,14.8
2022-12-31T21:39:00.985Z,14.8
2022-12-31T21:41:00.921Z,14.8
2022-12-31T21:42:00.953Z,14.9
2022-12-31T21:46:00.988Z,14.7
2022-12-31T21:47:33.702Z,15
2022-12-31T21:49:00.991Z,14.8
2022-12-31T21:52:00.992Z,14.9
2022-12-31T21:53:00.924Z,15
2022-12-31T21:58:25.595Z,15.1
2022-12-31T21:59:01.031Z,14.9
2022-12-31T22:01:01.011Z,15
2022-12-31T22:04:01.005Z,15.1
2022-12-31T22:05:02.546Z,15
2022-12-31T22:07:01.017Z,15.1
2022-12-31T22:11:00.983Z,15.1
2022-12-31T22:13:01.033Z,15.2
2022-12-31T22:18:00.952Z,15.2
2022-12-31T22:19:00.926Z,15.1
2022-12-31T22:20:25.623Z,15
2022-12-31T22:21:00.980Z,15.2
2022-12-31T22:24:00.980Z,15.1
2022-12-31T22:26:00.920Z,15.2
2022-12-31T22:29:00.940Z,15.3
2022-12-31T22:30:01.037Z,15.2
2022-12-31T22:33:00.992Z,15.1
2022-12-31T22:36:00.953Z,15.1
2022-12-31T22:37:14.247Z,15.3
2022-12-31T22:41:00.951Z,15.2
2022-12-31T22:42:00.934Z,15.3
2022-12-31T22:45:01.186Z,15.2
2022-12-31T22:49:00.932Z,15.3
2022-12-31T22:52:04.328Z,15.2
2022-12-31T22:53:01.036Z,15.4
2022-12-31T22:55:00.977Z,15.4
2022-12-31T22:58:00.952Z,15.2
2022-12-31T22:59:00.947Z,15.3
2022-12-31T23:00:01.006Z,15.1
2022-12-31T23:02:00.936Z,15.2
2022-12-31T23:04:00.987Z,15.3
2022-12-31T23:06:00.981Z,15.2
2022-12-31T23:09:00.937Z,15.1
2022-12-31T23:10:00.935Z,15.3
2022-12-31T23:12:01.032Z,15.2
2022-12-31T23:16:01.003Z,15.2
2022-12-31T23:17:00.990Z,15.1
2022-12-31T23:20:00.917Z,15.2
2022-12-31T23:21:00.946Z,15.1
2022-12-31T23:28:01.000Z,15
2022-12-31T23:29:00.979Z,15.2
2022-12-31T23:30:01.125Z,15.1
2022-12-31T23:32:00.947Z,15
2022-12-31T23:38:00.946Z,15
2022-12-31T23:40:00.953Z,14.9
2022-12-31T23:41:00.948Z,15
2022-12-31T23:44:00.923Z,14.8
2022-12-31T23:46:00.916Z,14.9
2022-12-31T23:47:00.977Z,14.8
2022-12-31T23:49:00.919Z,14.8
2022-12-31T23:54:00.981Z,14.7
2022-12-31T23:57:00.988Z,14.9
2022-12-31T23:59:00.950Z,14.8
